createdAt,value
2023-04-16T00:04:40.613Z,98765.94
2023-04-16T00:09:43.558Z,98769.72
2023-04-16T00:14:46.690Z,98776.91
2023-04-16T00:19:51.049Z,98784.31
2023-04-16T00:24:54.071Z,98783.72
2023-04-16T00:29:57.024Z,98785.69
2023-04-16T00:35:01.328Z,98789.44
2023-04-16T00:40:04.351Z,98791.69
2023-04-16T00:45:08.418Z,98797.84
2023-04-16T00:50:13.370Z,98790.03
2023-04-16T00:55:18.861Z,98795.22
2023-04-16T01:00:22.086Z,98798.19
2023-04-16T01:05:26.457Z,98805.41
2023-04-16T01:10:29.823Z,98801.94
2023-04-16T01:15:32.827Z,98802.88
2023-04-16T01:20:37.481Z,98799.66
2023-04-16T01:25:40.707Z,98804.28
2023-04-16T01:30:44.000Z,98798.25
2023-04-16T01:35:59.359Z,98802.56
2023-04-16T01:41:02.261Z,98806.75
2023-04-16T01:46:28.349Z,98820.28
2023-04-16T01:51:32.747Z,98809.50
2023-04-16T01:56:35.742Z,98810.84
2023-04-16T02:01:38.788Z,98810.97
2023-04-16T02:06:43.131Z,98812.59
2023-04-16T02:11:46.077Z,98817.34
2023-04-16T02:16:49.110Z,98822.69
2023-04-16T02:22:11.475Z,98819.00
2023-04-16T02:27:14.486Z,98821.50
2023-04-16T02:32:18.333Z,98829.19
2023-04-16T02:37:25.102Z,98832.53
2023-04-16T02:42:28.638Z,98841.44
2023-04-16T02:47:31.613Z,98839.22
2023-04-16T02:52:35.890Z,98839.41
2023-04-16T02:57:38.824Z,98835.63
2023-04-16T03:02:42.670Z,98836.91
2023-04-16T03:07:47.132Z,98842.91
2023-04-16T03:12:51.289Z,98843.91
2023-04-16T03:17:54.335Z,98839.00
2023-04-16T03:22:58.623Z,98848.22
2023-04-16T03:28:03.390Z,98861.81
2023-04-16T03:33:06.658Z,98865.13
2023-04-16T03:38:10.953Z,98873.44
2023-04-16T03:43:15.231Z,98884.66
2023-04-16T03:48:19.342Z,98887.44
2023-04-16T03:53:23.821Z,98890.41
2023-04-16T03:58:27.075Z,98896.78
2023-04-16T04:03:30.391Z,98902.75
2023-04-16T04:08:34.946Z,98911.13
2023-04-16T04:13:39.906Z,98907.88
2023-04-16T04:18:44.368Z,98908.41
2023-04-16T04:23:49.192Z,98910.31
2023-04-16T04:28:52.234Z,98918.72
2023-04-16T04:33:55.512Z,98914.78
2023-04-16T04:38:59.926Z,98916.56
2023-04-16T04:44:03.824Z,98927.16
2023-04-16T04:49:06.889Z,98931.19
2023-04-16T04:54:11.276Z,98931.06
2023-04-16T04:59:14.217Z,98940.84
2023-04-16T05:04:18.226Z,98935.25
2023-04-16T05:09:22.548Z,98940.50
2023-04-16T05:14:25.543Z,98951.09
2023-04-16T05:19:28.448Z,98957.44
2023-04-16T05:24:32.764Z,98954.56
2023-04-16T05:29:35.653Z,98957.13
2023-04-16T05:34:38.644Z,98964.59
2023-04-16T05:39:42.910Z,98960.56
2023-04-16T05:44:45.795Z,98971.59
2023-04-16T05:49:48.703Z,98970.28
2023-04-16T05:54:53.001Z,98977.72
2023-04-16T05:59:55.913Z,98983.16
2023-04-16T06:04:58.876Z,98994.00
2023-04-16T06:10:03.200Z,99002.03
2023-04-16T06:15:07.087Z,98999.09
2023-04-16T06:20:11.258Z,99001.59
2023-04-16T06:25:17.661Z,99006.63
2023-04-16T06:30:21.354Z,99011.13
2023-04-16T06:35:24.281Z,99016.56
2023-04-16T06:40:28.604Z,99009.31
2023-04-16T06:45:31.497Z,99007.09
2023-04-16T06:50:34.414Z,99005.31
2023-04-16T06:55:38.677Z,99009.50
2023-04-16T07:00:41.668Z,99009.28
2023-04-16T07:05:44.622Z,99019.00
2023-04-16T07:10:48.980Z,99016.44
2023-04-16T07:15:52.024Z,99018.47
2023-04-16T07:20:54.971Z,99030.19
2023-04-16T07:25:59.223Z,99024.28
2023-04-16T07:31:03.334Z,99029.13
2023-04-16T07:36:06.727Z,99027.50
2023-04-16T07:41:11.225Z,99038.72
2023-04-16T07:46:14.202Z,99039.75
2023-04-16T07:51:17.396Z,99045.50
2023-04-16T07:56:21.635Z,99052.06
2023-04-16T08:01:24.639Z,99054.53
2023-04-16T08:06:27.762Z,99058.31
2023-04-16T08:11:32.067Z,99052.22
2023-04-16T08:16:34.997Z,99059.81
2023-04-16T08:21:37.887Z,99066.41
2023-04-16T08:26:42.171Z,99060.06
2023-04-16T08:31:45.164Z,99062.22
2023-04-16T08:36:48.105Z,99072.66
2023-04-16T08:41:55.003Z,99087.13
2023-04-16T08:46:59.234Z,99096.22
2023-04-16T08:52:06.650Z,99095.84
2023-04-16T08:57:13.645Z,99093.06
2023-04-16T09:02:17.090Z,99088.56
2023-04-16T09:07:22.066Z,99094.41
2023-04-16T09:12:27.065Z,99108.34
2023-04-16T09:17:30.157Z,99109.84
2023-04-16T09:22:33.285Z,99114.53
2023-04-16T09:27:37.825Z,99119.50
2023-04-16T09:32:41.109Z,99119.78
2023-04-16T09:37:44.084Z,99115.75
2023-04-16T09:42:51.093Z,99127.59
2023-04-16T09:47:54.121Z,99136.66
2023-04-16T09:52:56.996Z,99137.13
2023-04-16T09:58:02.308Z,99130.28
2023-04-16T10:03:06.709Z,99142.25
2023-04-16T10:08:14.144Z,99143.31
2023-04-16T10:13:19.244Z,99147.88
2023-04-16T10:18:23.173Z,99140.47
2023-04-16T10:23:26.119Z,99139.97
2023-04-16T10:28:30.611Z,99145.47
2023-04-16T10:33:35.770Z,99148.25
2023-04-16T10:38:42.677Z,99151.66
2023-04-16T10:43:48.691Z,99151.50
2023-04-16T10:48:54.114Z,99145.25
2023-04-16T10:53:58.231Z,99142.09
2023-04-16T10:59:05.349Z,99159.56
2023-04-16T11:04:35.810Z,99158.53
2023-04-16T11:09:52.667Z,99166.13
2023-04-16T11:15:02.141Z,99162.78
2023-04-16T11:20:19.315Z,99167.31
2023-04-16T11:25:24.411Z,99168.03
2023-04-16T11:30:33.900Z,99158.34
2023-04-16T11:35:37.049Z,99167.59
2023-04-16T11:40:39.980Z,99162.88
2023-04-16T11:45:58.430Z,99160.00
2023-04-16T11:51:01.430Z,99165.34
2023-04-16T11:56:04.809Z,99156.25
2023-04-16T12:01:10.106Z,99160.72
2023-04-16T12:06:13.065Z,99163.84
2023-04-16T12:11:16.046Z,99160.38
2023-04-16T12:16:21.844Z,99146.75
2023-04-16T12:21:24.787Z,99153.78
2023-04-16T12:26:27.737Z,99157.91
2023-04-16T12:31:39.360Z,99161.31
2023-04-16T12:36:42.542Z,99164.91
2023-04-16T12:41:45.849Z,99161.88
2023-04-16T12:46:50.220Z,99154.44
2023-04-16T12:51:53.137Z,99155.19
2023-04-16T12:56:56.028Z,99164.56
2023-04-16T13:02:02.265Z,99158.94
2023-04-16T13:07:05.278Z,99162.78
2023-04-16T13:12:08.772Z,99158.00
2023-04-16T13:17:12.999Z,99160.13
2023-04-16T13:22:15.959Z,99169.03
2023-04-16T13:27:18.826Z,99171.94
2023-04-16T13:32:24.255Z,99170.13
2023-04-16T13:37:27.196Z,99173.84
2023-04-16T13:42:30.116Z,99169.94
2023-04-16T13:47:35.072Z,99169.25
2023-04-16T13:52:38.048Z,99172.78
2023-04-16T13:57:41.092Z,99191.44
2023-04-16T14:02:45.961Z,99189.84
2023-04-16T14:07:49.053Z,99187.28
2023-04-16T14:12:52.071Z,99188.81
2023-04-16T14:17:56.527Z,99192.19
2023-04-16T14:22:59.767Z,99187.19
2023-04-16T14:28:02.770Z,99204.81
2023-04-16T14:33:07.678Z,99197.81
2023-04-16T14:38:10.937Z,99187.88
2023-04-16T14:43:13.875Z,99191.09
2023-04-16T14:48:18.194Z,99201.06
2023-04-16T14:53:21.198Z,99199.34
2023-04-16T14:58:24.217Z,99203.47
2023-04-16T15:03:28.750Z,99203.25
2023-04-16T15:08:31.828Z,99213.06
2023-04-16T15:13:34.725Z,99217.28
2023-04-16T15:18:39.018Z,99218.84
2023-04-16T15:23:41.988Z,99217.28
2023-04-16T15:28:44.898Z,99209.25
2023-04-16T15:33:49.164Z,99219.13
2023-04-16T15:38:52.056Z,99221.06
2023-04-16T15:43:54.916Z,99220.84
2023-04-16T15:48:59.165Z,99230.09
2023-04-16T15:54:02.029Z,99240.19
2023-04-16T15:59:05.002Z,99252.34
2023-04-16T16:04:09.584Z,99250.88
2023-04-16T16:09:12.924Z,99249.63
2023-04-16T16:14:18.570Z,99252.31
2023-04-16T16:19:23.026Z,99255.50
2023-04-16T16:24:26.550Z,99263.59
2023-04-16T16:29:30.624Z,99277.50
2023-04-16T16:34:34.935Z,99286.28
2023-04-16T16:39:38.913Z,99285.84
2023-04-16T16:44:41.975Z,99285.34
2023-04-16T16:49:46.477Z,99290.13
2023-04-16T16:54:49.349Z,99290.81
2023-04-16T16:59:52.355Z,99300.94
2023-04-16T17:04:59.041Z,99306.81
2023-04-16T17:10:04.479Z,99303.66
2023-04-16T17:15:09.957Z,99318.94
2023-04-16T17:20:14.295Z,99317.31
2023-04-16T17:25:17.271Z,99325.81
2023-04-16T17:30:20.627Z,99325.81
2023-04-16T17:35:25.359Z,99327.84
2023-04-16T17:40:28.407Z,99338.13
2023-04-16T17:45:31.380Z,99344.78
2023-04-16T17:50:37.547Z,99348.44
2023-04-16T17:55:42.749Z,99338.72
2023-04-16T18:00:45.921Z,99354.06
2023-04-16T18:05:50.149Z,99356.47
2023-04-16T18:10:54.888Z,99357.72
2023-04-16T18:15:57.820Z,99361.91
2023-04-16T18:21:02.701Z,99362.91
2023-04-16T18:26:08.331Z,99366.75
2023-04-16T18:31:12.246Z,99365.34
2023-04-16T18:36:17.254Z,99370.56
2023-04-16T18:41:20.914Z,99376.81
2023-04-16T18:46:24.035Z,99395.59
2023-04-16T18:51:28.504Z,99397.22
2023-04-16T18:56:31.572Z,99393.19
2023-04-16T19:01:34.523Z,99401.63
2023-04-16T19:06:38.864Z,99399.19
2023-04-16T19:11:41.918Z,99398.81
2023-04-16T19:16:45.050Z,99403.22
2023-04-16T19:21:49.584Z,99396.34
2023-04-16T19:26:52.508Z,99406.59
2023-04-16T19:31:55.460Z,99404.56
2023-04-16T19:36:59.754Z,99409.59
2023-04-16T19:42:02.814Z,99410.44
2023-04-16T19:47:06.859Z,99399.22
2023-04-16T19:52:11.184Z,99411.72
2023-04-16T19:57:14.097Z,99410.50
2023-04-16T20:02:17.055Z,99405.25
2023-04-16T20:07:21.570Z,99410.91
2023-04-16T20:12:24.497Z,99420.97
2023-04-16T20:17:27.427Z,99419.34
2023-04-16T20:22:31.717Z,99430.25
2023-04-16T20:27:35.234Z,99418.94
2023-04-16T20:32:38.106Z,99419.75
2023-04-16T20:37:43.124Z,99416.34
2023-04-16T20:42:47.137Z,99410.91
2023-04-16T20:47:50.037Z,99423.81
2023-04-16T20:52:54.401Z,99420.19
2023-04-16T20:57:57.316Z,99427.22
2023-04-16T21:03:00.426Z,99429.03
2023-04-16T21:08:04.898Z,99427.03
2023-04-16T21:13:07.846Z,99427.94
2023-04-16T21:18:11.500Z,99436.47
2023-04-16T21:23:15.897Z,99428.00
2023-04-16T21:28:18.828Z,99428.28
2023-04-16T21:33:21.768Z,99426.00
2023-04-16T21:38:26.091Z,99425.28
2023-04-16T21:43:30.567Z,99437.56
2023-04-16T21:48:33.488Z,99432.34
2023-04-16T21:53:39.016Z,99428.09
2023-04-16T21:58:41.969Z,99430.41
2023-04-16T22:03:47.078Z,99432.56
2023-04-16T22:08:51.612Z,99436.78
2023-04-16T22:13:57.671Z,99432.66
2023-04-16T22:19:00.591Z,99433.84
2023-04-16T22:24:05.094Z,99437.91
2023-04-16T22:29:08.221Z,99428.38
2023-04-16T22:34:11.140Z,99434.50
2023-04-16T22:39:15.868Z,99428.38
2023-04-16T22:44:18.813Z,99433.09
2023-04-16T22:49:21.764Z,99431.50
2023-04-16T22:54:29.149Z,99421.44
2023-04-16T22:59:32.211Z,99430.69
2023-04-16T23:04:35.171Z,99423.63
2023-04-16T23:09:39.445Z,99429.59
2023-04-16T23:14:45.863Z,99439.47
2023-04-16T23:19:48.879Z,99435.88
2023-04-16T23:24:53.267Z,99432.78
2023-04-16T23:29:56.118Z,99436.88
2023-04-16T23:34:59.091Z,99433.19
2023-04-16T23:40:04.080Z,99430.66
2023-04-16T23:45:07.897Z,99439.00
2023-04-16T23:50:11.312Z,99426.84
2023-04-16T23:55:15.609Z,99432.00
